createdAt,value
2022-08-20T00:00:49.417Z,18.80
2022-08-20T00:03:27.578Z,18.90
2022-08-20T00:06:06.548Z,18.80
2022-08-20T00:08:33.438Z,18.80
2022-08-20T00:11:01.237Z,18.80
2022-08-20T00:13:50.258Z,18.80
2022-08-20T00:16:18.688Z,18.80
2022-08-20T00:18:46.555Z,18.80
2022-08-20T00:21:18.742Z,18.90
2022-08-20T00:23:48.152Z,19.00
2022-08-20T00:26:15.982Z,18.90
2022-08-20T00:28:42.701Z,19.00
2022-08-20T00:31:11.656Z,19.00
2022-08-20T00:33:41.533Z,19.10
2022-08-20T00:36:10.833Z,19.10
2022-08-20T00:38:40.253Z,19.10
2022-08-20T00:41:09.214Z,19.20
2022-08-20T00:43:39.004Z,19.20
2022-08-20T00:46:09.425Z,19.20
2022-08-20T00:48:38.853Z,19.20
2022-08-20T00:51:27.079Z,19.20
2022-08-20T00:54:02.285Z,19.20
2022-08-20T00:56:33.434Z,19.20
2022-08-20T00:59:01.521Z,19.30
2022-08-20T01:01:29.332Z,19.30
2022-08-20T01:03:56.635Z,19.30
2022-08-20T01:06:25.134Z,19.30
2022-08-20T01:08:52.600Z,19.40
2022-08-20T01:11:22.549Z,19.40
2022-08-20T01:13:50.658Z,19.40
2022-08-20T01:16:25.177Z,19.40
2022-08-20T01:18:57.560Z,19.40
2022-08-20T01:21:32.114Z,19.50
2022-08-20T01:24:07.584Z,19.50
2022-08-20T01:26:43.789Z,19.50
2022-08-20T01:29:17.684Z,19.50
2022-08-20T01:31:45.340Z,19.50
2022-08-20T01:34:17.530Z,19.50
2022-08-20T01:36:48.590Z,19.50
2022-08-20T01:39:44.039Z,19.40
2022-08-20T01:42:27.092Z,19.40
2022-08-20T01:44:53.831Z,19.40
2022-08-20T01:47:23.757Z,19.50
2022-08-20T01:49:53.478Z,19.50
2022-08-20T01:52:24.895Z,19.50
2022-08-20T01:54:52.487Z,19.50
2022-08-20T01:57:21.047Z,19.50
2022-08-20T01:59:49.795Z,19.60
2022-08-20T02:02:16.561Z,19.60
2022-08-20T02:04:43.726Z,19.60
2022-08-20T02:07:17.027Z,19.60
2022-08-20T02:09:44.135Z,19.60
2022-08-20T02:12:12.006Z,19.70
2022-08-20T02:14:48.794Z,19.70
2022-08-20T02:17:16.382Z,19.70
2022-08-20T02:19:48.717Z,19.70
2022-08-20T02:22:20.850Z,19.70
2022-08-20T02:24:48.459Z,19.80
2022-08-20T02:27:15.735Z,19.70
2022-08-20T02:29:42.548Z,19.90
2022-08-20T02:32:25.141Z,19.80
2022-08-20T02:34:56.058Z,19.80
2022-08-20T02:37:22.758Z,19.80
2022-08-20T02:39:49.459Z,19.80
2022-08-20T02:42:16.938Z,19.80
2022-08-20T02:44:43.630Z,19.80
2022-08-20T02:47:10.331Z,19.90
2022-08-20T02:49:37.134Z,19.80
2022-08-20T02:52:04.073Z,19.80
2022-08-20T02:54:30.820Z,19.90
2022-08-20T02:56:57.552Z,19.90
2022-08-20T02:59:24.248Z,19.90
2022-08-20T03:01:59.519Z,19.90
2022-08-20T03:04:29.326Z,19.90
2022-08-20T03:06:56.400Z,19.80
2022-08-20T03:09:23.531Z,19.90
2022-08-20T03:11:50.189Z,19.80
2022-08-20T03:14:16.944Z,19.90
2022-08-20T03:16:43.703Z,19.90
2022-08-20T03:19:10.370Z,19.90
2022-08-20T03:21:37.202Z,19.90
2022-08-20T03:24:04.186Z,19.90
2022-08-20T03:26:30.848Z,19.90
2022-08-20T03:28:57.582Z,20.10
2022-08-20T03:31:24.550Z,19.90
2022-08-20T03:33:53.608Z,19.90
2022-08-20T03:36:27.993Z,19.90
2022-08-20T03:38:57.873Z,19.90
2022-08-20T03:41:24.914Z,19.90
2022-08-20T03:43:52.053Z,19.90
2022-08-20T03:46:23.280Z,19.90
2022-08-20T03:48:59.833Z,20.00
2022-08-20T03:51:29.193Z,19.90
2022-08-20T03:53:56.057Z,19.90
2022-08-20T03:56:22.737Z,19.80
2022-08-20T03:58:49.475Z,19.90
2022-08-20T04:01:44.819Z,19.80
2022-08-20T04:04:03.301Z,19.90
2022-08-20T04:06:30.317Z,19.80
2022-08-20T04:08:57.053Z,19.90
2022-08-20T04:11:24.325Z,19.80
2022-08-20T04:13:51.294Z,19.80
2022-08-20T04:16:18.116Z,19.80
2022-08-20T04:19:01.371Z,19.80
2022-08-20T04:21:33.580Z,19.80
2022-08-20T04:24:05.115Z,19.80
2022-08-20T04:26:32.308Z,19.80
2022-08-20T04:28:59.028Z,19.80
2022-08-20T04:31:33.450Z,19.90
2022-08-20T04:34:02.177Z,19.80
2022-08-20T04:36:29.400Z,19.80
2022-08-20T04:38:56.106Z,19.90
2022-08-20T04:41:24.277Z,19.90
2022-08-20T04:43:55.871Z,19.80
2022-08-20T04:46:25.984Z,19.90
2022-08-20T04:48:53.217Z,19.90
2022-08-20T04:51:23.072Z,19.90
2022-08-20T04:53:51.858Z,20.30
2022-08-20T04:56:23.360Z,20.00
2022-08-20T04:58:51.242Z,20.00
2022-08-20T05:01:18.266Z,20.00
2022-08-20T05:03:47.630Z,20.00
2022-08-20T05:06:17.398Z,20.00
2022-08-20T05:08:44.399Z,20.00
2022-08-20T05:11:30.139Z,20.00
2022-08-20T05:14:00.355Z,20.00
2022-08-20T05:16:27.039Z,20.00
2022-08-20T05:18:53.683Z,20.00
2022-08-20T05:21:21.195Z,20.00
2022-08-20T05:23:49.219Z,20.00
2022-08-20T05:26:16.621Z,20.20
2022-08-20T05:28:54.459Z,20.00
2022-08-20T05:31:31.285Z,20.00
2022-08-20T05:34:12.158Z,20.00
2022-08-20T05:36:41.159Z,20.00
2022-08-20T05:39:08.944Z,20.00
2022-08-20T05:41:36.325Z,20.00
2022-08-20T05:44:03.519Z,20.00
2022-08-20T05:46:31.850Z,20.00
2022-08-20T05:49:01.449Z,20.00
2022-08-20T05:51:29.688Z,20.00
2022-08-20T05:53:59.585Z,20.00
2022-08-20T05:56:30.252Z,20.00
2022-08-20T05:58:59.503Z,20.00
2022-08-20T06:01:26.316Z,20.00
2022-08-20T06:04:11.710Z,20.00
2022-08-20T06:06:45.156Z,20.00
2022-08-20T06:09:31.320Z,20.00
2022-08-20T06:12:04.038Z,19.90
2022-08-20T06:14:31.632Z,20.00
2022-08-20T06:17:10.856Z,19.80
2022-08-20T06:19:44.078Z,19.90
2022-08-20T06:22:19.926Z,19.90
2022-08-20T06:24:51.156Z,19.90
2022-08-20T06:27:18.331Z,20.00
2022-08-20T06:29:45.374Z,20.00
2022-08-20T06:32:12.101Z,20.00
2022-08-20T06:34:49.749Z,20.00
2022-08-20T06:37:18.653Z,20.00
2022-08-20T06:39:45.394Z,20.10
2022-08-20T06:42:12.075Z,19.90
2022-08-20T06:44:38.747Z,20.10
2022-08-20T06:47:06.238Z,20.10
2022-08-20T06:49:37.085Z,20.20
2022-08-20T06:52:05.180Z,20.20
2022-08-20T06:54:32.837Z,20.20
2022-08-20T06:56:59.776Z,20.00
2022-08-20T06:59:26.790Z,20.20
2022-08-20T07:01:56.523Z,20.20
2022-08-20T07:04:25.756Z,20.30
2022-08-20T07:06:57.647Z,20.40
2022-08-20T07:09:26.367Z,20.40
2022-08-20T07:11:53.343Z,20.50
2022-08-20T07:14:20.578Z,20.50
2022-08-20T07:16:48.184Z,20.60
2022-08-20T07:19:15.023Z,20.60
2022-08-20T07:21:42.001Z,20.60
2022-08-20T07:24:09.725Z,20.60
2022-08-20T07:26:36.574Z,20.70
2022-08-20T07:29:03.744Z,20.70
2022-08-20T07:31:49.041Z,20.70
2022-08-20T07:34:16.741Z,20.70
2022-08-20T07:36:43.929Z,20.80
2022-08-20T07:39:10.655Z,20.80
2022-08-20T07:41:37.778Z,20.80
2022-08-20T07:44:04.792Z,20.90
2022-08-20T07:46:32.052Z,21.00
2022-08-20T07:48:59.120Z,21.00
2022-08-20T07:51:26.423Z,21.10
2022-08-20T07:53:53.213Z,21.30
2022-08-20T07:56:24.309Z,21.30
2022-08-20T07:58:55.238Z,21.30
2022-08-20T08:01:25.999Z,21.20
2022-08-20T08:03:53.014Z,21.30
2022-08-20T08:06:29.741Z,21.50
2022-08-20T08:09:18.338Z,21.60
2022-08-20T08:11:51.046Z,21.80
2022-08-20T08:14:23.383Z,22.00
2022-08-20T08:16:50.889Z,22.00
2022-08-20T08:19:18.517Z,22.20
2022-08-20T08:21:45.354Z,22.20
2022-08-20T08:24:16.669Z,22.30
2022-08-20T08:26:50.020Z,22.30
2022-08-20T08:29:17.075Z,22.40
2022-08-20T08:31:43.783Z,22.40
2022-08-20T08:34:10.514Z,22.50
2022-08-20T08:36:39.185Z,22.50
2022-08-20T08:39:06.601Z,22.50
2022-08-20T08:41:36.569Z,22.60
2022-08-20T08:44:14.439Z,22.50
2022-08-20T08:46:48.320Z,22.60
2022-08-20T08:49:19.893Z,22.60
2022-08-20T08:52:25.298Z,22.60
2022-08-20T08:54:56.345Z,22.60
2022-08-20T08:57:24.109Z,22.50
2022-08-20T09:00:14.026Z,22.60
2022-08-20T09:02:53.176Z,22.60
2022-08-20T09:05:22.375Z,22.70
2022-08-20T09:07:51.160Z,22.70
2022-08-20T09:10:23.185Z,22.70
2022-08-20T09:12:50.901Z,22.90
2022-08-20T09:15:19.188Z,22.90
2022-08-20T09:17:45.849Z,22.80
2022-08-20T09:20:12.678Z,22.90
2022-08-20T09:22:41.029Z,23.00
2022-08-20T09:25:08.254Z,23.10
2022-08-20T09:27:34.974Z,23.10
2022-08-20T09:30:03.185Z,23.20
2022-08-20T09:32:30.351Z,23.30
2022-08-20T09:34:58.079Z,23.30
2022-08-20T09:37:27.424Z,23.30
2022-08-20T09:39:54.609Z,23.40
2022-08-20T09:42:24.533Z,23.30
2022-08-20T09:44:51.828Z,23.40
2022-08-20T09:47:18.614Z,23.30
2022-08-20T09:49:45.757Z,23.30
2022-08-20T09:52:22.717Z,23.30
2022-08-20T09:54:50.405Z,23.30
2022-08-20T09:57:17.232Z,23.40
2022-08-20T09:59:45.673Z,23.50
2022-08-20T10:02:12.394Z,23.60
2022-08-20T10:04:39.083Z,23.60
2022-08-20T10:07:08.888Z,23.60
2022-08-20T10:09:37.189Z,23.60
2022-08-20T10:12:06.456Z,23.60
2022-08-20T10:14:33.172Z,23.60
2022-08-20T10:17:02.080Z,23.60
2022-08-20T10:19:30.214Z,23.60
2022-08-20T10:21:57.573Z,23.60
2022-08-20T10:24:25.200Z,23.60
2022-08-20T10:26:55.515Z,23.70
2022-08-20T10:29:22.373Z,23.60
2022-08-20T10:31:49.039Z,23.60
2022-08-20T10:34:15.729Z,23.60
2022-08-20T10:36:43.418Z,23.60
2022-08-20T10:39:10.308Z,23.50
2022-08-20T10:41:39.019Z,23.60
2022-08-20T10:44:06.972Z,23.60
2022-08-20T10:46:34.166Z,23.70
2022-08-20T10:49:00.939Z,23.70
2022-08-20T10:51:32.290Z,23.70
2022-08-20T10:53:59.827Z,23.70
2022-08-20T10:56:26.508Z,23.70
2022-08-20T10:58:53.552Z,23.60
2022-08-20T11:01:31.484Z,23.60
2022-08-20T11:04:00.673Z,23.60
2022-08-20T11:06:27.361Z,23.70
2022-08-20T11:08:54.036Z,23.90
2022-08-20T11:11:23.904Z,24.10
2022-08-20T11:13:50.573Z,24.20
2022-08-20T11:16:17.277Z,24.20
2022-08-20T11:18:47.479Z,24.30
2022-08-20T11:21:14.828Z,24.30
2022-08-20T11:23:41.502Z,24.30
2022-08-20T11:26:08.510Z,24.40
2022-08-20T11:28:35.285Z,24.40
2022-08-20T11:31:02.495Z,24.40
2022-08-20T11:33:29.516Z,24.50
2022-08-20T11:35:56.388Z,24.50
2022-08-20T11:38:23.038Z,24.60
2022-08-20T11:40:49.702Z,24.70
2022-08-20T11:43:17.465Z,24.80
2022-08-20T11:45:47.667Z,24.80
2022-08-20T11:48:14.775Z,24.90
2022-08-20T11:50:41.564Z,24.90
2022-08-20T11:53:08.501Z,24.90
2022-08-20T11:55:36.386Z,24.90
2022-08-20T11:58:03.689Z,24.90
2022-08-20T12:00:33.951Z,24.80
2022-08-20T12:03:01.985Z,24.60
2022-08-20T12:05:29.942Z,24.60
2022-08-20T12:07:57.874Z,24.40
2022-08-20T12:10:26.631Z,23.90
2022-08-20T12:12:53.909Z,23.80
2022-08-20T12:15:21.022Z,23.80
2022-08-20T12:17:48.109Z,23.80
2022-08-20T12:20:15.408Z,23.70
2022-08-20T12:22:42.593Z,23.70
2022-08-20T12:25:09.527Z,23.70
2022-08-20T12:27:37.777Z,23.60
2022-08-20T12:30:08.823Z,23.50
2022-08-20T12:32:35.699Z,23.50
2022-08-20T12:35:03.368Z,23.50
2022-08-20T12:37:31.156Z,23.40
2022-08-20T12:39:59.962Z,23.30
2022-08-20T12:42:27.879Z,23.30
2022-08-20T12:44:54.550Z,23.20
2022-08-20T12:47:25.181Z,23.10
2022-08-20T12:49:55.110Z,23.10
2022-08-20T12:52:23.214Z,23.10
2022-08-20T12:54:50.070Z,23.10
2022-08-20T12:57:28.245Z,23.10
2022-08-20T13:00:00.736Z,23.00
2022-08-20T13:02:30.576Z,23.00
2022-08-20T13:05:00.138Z,23.10
2022-08-20T13:07:29.286Z,23.00
2022-08-20T13:09:56.003Z,23.10
2022-08-20T13:12:22.729Z,23.10
2022-08-20T13:14:49.381Z,23.20
2022-08-20T13:17:18.791Z,23.20
2022-08-20T13:19:46.166Z,23.20
2022-08-20T13:22:13.995Z,23.30
2022-08-20T13:24:41.476Z,23.30
2022-08-20T13:27:10.822Z,23.40
2022-08-20T13:29:38.258Z,23.40
2022-08-20T13:32:05.571Z,23.40
2022-08-20T13:35:05.777Z,23.40
2022-08-20T13:37:32.873Z,23.50
2022-08-20T13:40:00.303Z,23.50
2022-08-20T13:42:28.047Z,23.50
2022-08-20T13:44:54.960Z,23.60
2022-08-20T13:47:28.501Z,23.60
2022-08-20T13:50:00.615Z,23.70
2022-08-20T13:52:27.842Z,23.80
2022-08-20T13:54:54.889Z,23.90
2022-08-20T13:57:23.471Z,23.90
2022-08-20T13:59:52.146Z,23.90
2022-08-20T14:02:19.798Z,24.00
2022-08-20T14:04:47.746Z,24.10
2022-08-20T14:07:34.278Z,24.20
2022-08-20T14:10:06.481Z,24.20
2022-08-20T14:12:33.571Z,24.40
2022-08-20T14:15:00.253Z,24.50
2022-08-20T14:17:30.090Z,24.50
2022-08-20T14:20:04.328Z,24.80
2022-08-20T14:22:31.401Z,24.90
2022-08-20T14:25:02.537Z,25.00
2022-08-20T14:27:31.401Z,25.20
2022-08-20T14:29:58.811Z,25.30
2022-08-20T14:32:25.847Z,25.40
2022-08-20T14:34:53.592Z,25.60
2022-08-20T14:37:23.425Z,25.70
2022-08-20T14:39:53.047Z,25.70
2022-08-20T14:42:22.875Z,25.60
2022-08-20T14:44:50.951Z,25.30
2022-08-20T14:47:24.983Z,24.50
2022-08-20T14:49:53.237Z,24.20
2022-08-20T14:52:21.757Z,24.30
2022-08-20T14:54:49.531Z,24.40
2022-08-20T14:57:17.851Z,24.30
2022-08-20T14:59:45.322Z,24.00
2022-08-20T15:02:14.071Z,23.90
2022-08-20T15:04:41.804Z,23.70
2022-08-20T15:07:22.957Z,23.70
2022-08-20T15:09:49.798Z,23.50
2022-08-20T15:12:16.733Z,23.40
2022-08-20T15:14:43.493Z,23.30
2022-08-20T15:17:23.447Z,23.30
2022-08-20T15:19:50.263Z,23.10
2022-08-20T15:22:17.479Z,23.20
2022-08-20T15:24:44.260Z,23.20
2022-08-20T15:27:22.833Z,23.20
2022-08-20T15:29:51.121Z,23.30
2022-08-20T15:32:18.881Z,23.30
2022-08-20T15:34:45.968Z,23.30
2022-08-20T15:37:18.697Z,23.30
2022-08-20T15:39:45.447Z,23.50
2022-08-20T15:42:13.641Z,23.50
2022-08-20T15:44:42.190Z,23.50
2022-08-20T15:47:15.636Z,23.50
2022-08-20T15:49:43.709Z,23.40
2022-08-20T15:52:11.762Z,23.40
2022-08-20T15:54:38.950Z,23.40
2022-08-20T15:57:12.741Z,23.40
2022-08-20T16:00:11.303Z,23.40
2022-08-20T16:02:55.298Z,23.40
2022-08-20T16:05:58.700Z,23.40
2022-08-20T16:08:47.370Z,23.30
2022-08-20T16:11:41.111Z,23.30
2022-08-20T16:14:15.862Z,23.40
2022-08-20T16:16:59.090Z,23.40
2022-08-20T16:19:44.953Z,23.30
2022-08-20T16:22:16.453Z,23.30
2022-08-20T16:24:43.221Z,23.30
2022-08-20T16:27:21.843Z,23.30
2022-08-20T16:29:56.617Z,23.30
2022-08-20T16:32:43.293Z,23.30
2022-08-20T16:35:31.578Z,23.30
2022-08-20T16:38:36.955Z,23.30
2022-08-20T16:41:47.193Z,23.30
2022-08-20T16:44:33.959Z,23.30
2022-08-20T16:47:19.020Z,23.30
2022-08-20T16:49:52.932Z,23.30
2022-08-20T16:52:19.655Z,23.30
2022-08-20T16:54:46.326Z,23.30
2022-08-20T16:57:17.184Z,23.30
2022-08-20T17:00:16.426Z,23.30
2022-08-20T17:02:55.361Z,23.30
2022-08-20T17:05:25.051Z,23.30
2022-08-20T17:08:03.677Z,23.10
2022-08-20T17:10:52.123Z,23.20
2022-08-20T17:13:27.980Z,23.20
2022-08-20T17:16:06.819Z,23.20
2022-08-20T17:18:38.664Z,23.20
2022-08-20T17:21:17.660Z,23.20
2022-08-20T17:23:56.334Z,23.20
2022-08-20T17:26:46.658Z,23.20
2022-08-20T17:29:21.308Z,23.20
2022-08-20T17:31:51.865Z,23.20
2022-08-20T17:34:22.604Z,23.20
2022-08-20T17:36:53.615Z,23.10
2022-08-20T17:39:22.831Z,23.10
2022-08-20T17:41:56.560Z,23.10
2022-08-20T17:44:30.258Z,23.10
2022-08-20T17:46:58.862Z,23.00
2022-08-20T17:49:57.433Z,23.00
2022-08-20T17:52:36.420Z,23.00
2022-08-20T17:55:04.503Z,22.90
2022-08-20T17:57:43.015Z,22.90
2022-08-20T18:00:15.451Z,22.90
2022-08-20T18:02:43.244Z,22.80
2022-08-20T18:05:16.093Z,22.80
2022-08-20T18:08:11.560Z,22.80
2022-08-20T18:10:47.370Z,22.70
2022-08-20T18:13:19.181Z,22.70
2022-08-20T18:15:57.362Z,22.60
2022-08-20T18:18:56.469Z,22.50
2022-08-20T18:21:49.470Z,22.40
2022-08-20T18:24:23.914Z,22.40
2022-08-20T18:26:54.586Z,22.30
2022-08-20T18:29:29.894Z,22.20
2022-08-20T18:32:02.725Z,22.10
2022-08-20T18:34:29.550Z,22.00
2022-08-20T18:37:06.676Z,22.00
2022-08-20T18:39:36.974Z,21.90
2022-08-20T18:42:09.597Z,22.10
2022-08-20T18:44:41.085Z,21.90
2022-08-20T18:47:22.193Z,21.80
2022-08-20T18:50:02.270Z,21.70
2022-08-20T18:52:31.750Z,21.70
2022-08-20T18:55:01.625Z,21.70
2022-08-20T18:57:41.396Z,21.60
2022-08-20T19:00:14.210Z,21.60
2022-08-20T19:02:54.432Z,21.50
2022-08-20T19:05:46.238Z,21.60
2022-08-20T19:08:17.521Z,21.50
2022-08-20T19:10:52.654Z,21.50
2022-08-20T19:13:46.890Z,21.50
2022-08-20T19:16:21.465Z,21.30
2022-08-20T19:18:56.157Z,21.50
2022-08-20T19:21:35.221Z,21.20
2022-08-20T19:24:06.541Z,21.20
2022-08-20T19:26:44.518Z,21.20
2022-08-20T19:29:14.750Z,21.20
2022-08-20T19:31:43.006Z,21.30
2022-08-20T19:34:21.703Z,21.50
2022-08-20T19:36:58.669Z,21.10
2022-08-20T19:39:29.853Z,21.10
2022-08-20T19:42:12.924Z,21.10
2022-08-20T19:44:55.363Z,21.10
2022-08-20T19:47:49.264Z,21.00
2022-08-20T19:50:41.485Z,20.90
2022-08-20T19:53:18.843Z,20.90
2022-08-20T19:56:02.916Z,20.80
2022-08-20T19:58:31.366Z,20.80
2022-08-20T20:00:58.748Z,20.80
2022-08-20T20:03:28.918Z,20.80
2022-08-20T20:06:02.063Z,20.70
2022-08-20T20:08:49.904Z,20.70
2022-08-20T20:11:21.292Z,20.70
2022-08-20T20:13:48.028Z,20.60
2022-08-20T20:16:22.989Z,20.60
2022-08-20T20:19:09.107Z,20.40
2022-08-20T20:21:46.187Z,20.40
2022-08-20T20:24:40.886Z,20.40
2022-08-20T20:27:14.840Z,20.30
2022-08-20T20:29:46.773Z,20.30
2022-08-20T20:32:19.623Z,20.20
2022-08-20T20:34:55.347Z,20.00
2022-08-20T20:37:49.922Z,20.20
2022-08-20T20:40:44.898Z,20.10
2022-08-20T20:43:22.181Z,20.10
2022-08-20T20:45:59.625Z,20.10
2022-08-20T20:48:33.126Z,20.00
2022-08-20T20:51:11.772Z,20.00
2022-08-20T20:53:53.043Z,19.90
2022-08-20T20:56:42.787Z,19.90
2022-08-20T20:59:10.657Z,19.90
2022-08-20T21:01:48.321Z,19.90
2022-08-20T21:04:17.125Z,19.90
2022-08-20T21:06:43.964Z,19.70
2022-08-20T21:09:10.660Z,19.70
2022-08-20T21:11:37.428Z,19.70
2022-08-20T21:14:04.321Z,19.60
2022-08-20T21:16:31.034Z,19.60
2022-08-20T21:18:58.306Z,19.80
2022-08-20T21:21:24.972Z,19.90
2022-08-20T21:23:51.649Z,19.50
2022-08-20T21:26:18.723Z,19.50
2022-08-20T21:28:45.408Z,19.40
2022-08-20T21:31:12.308Z,19.50
2022-08-20T21:33:38.990Z,19.60
2022-08-20T21:36:05.890Z,19.50
2022-08-20T21:38:32.509Z,19.50
2022-08-20T21:40:59.326Z,19.50
2022-08-20T21:43:26.741Z,19.50
2022-08-20T21:45:53.720Z,19.40
2022-08-20T21:48:20.649Z,19.40
2022-08-20T21:50:47.380Z,19.60
2022-08-20T21:53:14.013Z,19.50
2022-08-20T21:55:41.266Z,19.60
2022-08-20T21:58:09.320Z,19.60
2022-08-20T22:01:01.061Z,19.60
2022-08-20T22:03:31.262Z,19.60
2022-08-20T22:05:58.123Z,19.50
2022-08-20T22:08:28.247Z,19.60
2022-08-20T22:10:57.060Z,19.60
2022-08-20T22:13:25.653Z,19.50
2022-08-20T22:15:52.326Z,19.50
2022-08-20T22:18:18.989Z,19.30
2022-08-20T22:20:45.921Z,19.40
2022-08-20T22:23:12.621Z,19.40
2022-08-20T22:25:40.054Z,19.40
2022-08-20T22:28:07.321Z,19.30
2022-08-20T22:30:34.115Z,19.20
2022-08-20T22:33:07.684Z,19.30
2022-08-20T22:35:35.135Z,19.20
2022-08-20T22:38:01.918Z,19.20
2022-08-20T22:40:28.749Z,19.10
2022-08-20T22:42:55.427Z,19.10
2022-08-20T22:45:22.348Z,19.00
2022-08-20T22:47:49.021Z,19.00
2022-08-20T22:50:17.652Z,19.00
2022-08-20T22:52:45.325Z,19.00
2022-08-20T22:55:12.365Z,19.00
2022-08-20T22:57:39.320Z,19.10
2022-08-20T23:00:11.324Z,19.00
2022-08-20T23:02:39.331Z,19.00
2022-08-20T23:05:06.906Z,19.00
2022-08-20T23:07:34.387Z,19.00
2022-08-20T23:10:01.051Z,19.00
2022-08-20T23:12:27.826Z,19.00
2022-08-20T23:14:54.926Z,18.90
2022-08-20T23:17:22.195Z,18.90
2022-08-20T23:19:49.838Z,18.80
2022-08-20T23:22:18.473Z,18.90
2022-08-20T23:24:45.435Z,18.80
2022-08-20T23:27:15.658Z,18.80
2022-08-20T23:29:42.937Z,18.80
2022-08-20T23:32:10.103Z,18.70
2022-08-20T23:34:36.829Z,18.70
2022-08-20T23:37:05.277Z,18.70
2022-08-20T23:39:32.293Z,18.70
2022-08-20T23:41:59.971Z,18.70
2022-08-20T23:44:27.320Z,18.70
2022-08-20T23:47:00.595Z,18.60
2022-08-20T23:49:28.206Z,18.50
2022-08-20T23:51:55.580Z,18.60
2022-08-20T23:54:22.257Z,18.70
2022-08-20T23:56:49.853Z,18.60
2022-08-20T23:59:16.896Z,18.60
